Time;durP1;ratioP1;P1;durP2;ratioP2;P2;SDS_P1;SDS_P2;PMS_P1;PMS_P2;Temp;Humidity;BMP_temperature;BMP_pressure;BME280_temperature;BME280_humidity;BME280_pressure;Samples;Min_cycle;Max_cycle;Signal;HPM_P1;HPM_P2
2021/12/14 00:02:01;;;;;;;12.35;7.38;;;8.20;99.90;;;;;;5037898;28;20092;-71
2021/12/14 00:04:32;;;;;;;12.88;8.05;;;8.20;99.90;;;;;;5040231;28;20045;-71
2021/12/14 00:07:01;;;;;;;15.00;8.35;;;8.90;99.90;;;;;;5040877;28;20108;-70
2021/12/14 00:09:32;;;;;;;17.08;8.63;;;8.20;99.90;;;;;;5038335;28;20131;-71
2021/12/14 00:17:06;;;;;;;14.13;8.88;;;8.10;99.90;;;;;;5040853;28;20497;-71
2021/12/14 00:19:32;;;;;;;12.93;7.55;;;8.10;99.90;;;;;;5055513;28;20141;-70
2021/12/14 00:22:05;;;;;;;13.77;7.90;;;8.10;99.90;;;;;;5039869;28;20045;-71
2021/12/14 00:24:31;;;;;;;12.00;7.82;;;8.10;99.90;;;;;;5073910;28;20413;-71
2021/12/14 00:27:05;;;;;;;14.57;8.85;;;8.10;99.90;;;;;;5037170;28;20132;-71
2021/12/14 00:29:37;;;;;;;15.18;8.20;;;8.20;99.90;;;;;;5073805;28;20066;-71
2021/12/14 00:32:08;;;;;;;12.43;7.15;;;8.10;99.90;;;;;;5038477;28;20536;-70
2021/12/14 00:34:41;;;;;;;12.68;8.15;;;8.20;99.90;;;;;;5039635;28;20063;-70
2021/12/14 00:37:14;;;;;;;12.88;8.20;;;8.10;99.90;;;;;;5039731;28;20512;-70
2021/12/14 00:39:42;;;;;;;14.38;9.13;;;8.10;99.90;;;;;;5037493;28;20041;-71
2021/12/14 00:42:08;;;;;;;14.15;8.80;;;8.10;99.90;;;;;;5040208;28;20096;-70
2021/12/14 00:44:34;;;;;;;12.45;8.27;;;8.20;99.90;;;;;;5069828;28;20538;-70
2021/12/14 00:47:00;;;;;;;15.27;8.55;;;8.20;99.90;;;;;;5073667;28;20088;-70
2021/12/14 00:49:26;;;;;;;14.98;8.70;;;8.10;99.90;;;;;;5037806;28;20052;-70
2021/12/14 00:51:54;;;;;;;16.55;8.60;;;8.10;99.90;;;;;;5039369;28;20050;-71
2021/12/14 00:54:21;;;;;;;15.23;8.90;;;8.10;99.90;;;;;;5023730;28;20136;-70
2021/12/14 00:56:48;;;;;;;15.45;8.80;;;8.10;99.90;;;;;;5020863;28;20042;-70
2021/12/14 00:59:15;;;;;;;16.17;9.73;;;8.10;99.90;;;;;;5041442;28;20037;-71
2021/12/14 01:02:05;;;;;;;17.38;9.10;;;8.10;99.90;;;;;;5036508;28;20045;-71
2021/12/14 01:04:42;;;;;;;16.23;9.15;;;8.20;99.90;;;;;;5040407;28;20060;-71
2021/12/14 01:07:10;;;;;;;17.50;9.20;;;8.20;99.90;;;;;;5073064;28;20148;-70
2021/12/14 01:09:40;;;;;;;17.63;9.48;;;8.10;99.90;;;;;;5020240;28;20081;-70
2021/12/14 01:12:14;;;;;;;17.65;9.80;;;8.10;99.90;;;;;;5073092;28;20050;-70
2021/12/14 01:14:59;;;;;;;17.52;9.65;;;8.10;99.90;;;;;;5036530;28;20054;-70
2021/12/14 01:17:42;;;;;;;14.80;9.15;;;8.10;99.90;;;;;;5040323;28;20583;-71
2021/12/14 01:20:11;;;;;;;14.68;10.00;;;8.10;99.90;;;;;;5072852;28;20083;-70
2021/12/14 01:22:42;;;;;;;19.17;10.07;;;8.10;99.90;;;;;;5037614;28;20124;-70
2021/12/14 01:25:21;;;;;;;19.98;10.93;;;8.10;99.90;;;;;;5040768;28;20089;-71
2021/12/14 01:27:56;;;;;;;18.30;10.50;;;8.10;99.90;;;;;;5037975;28;20041;-71
2021/12/14 01:30:31;;;;;;;17.52;9.70;;;8.10;99.90;;;;;;5022232;28;20061;-71
2021/12/14 01:33:02;;;;;;;17.43;10.17;;;8.10;99.90;;;;;;5039126;28;20053;-71
2021/12/14 01:35:32;;;;;;;18.50;10.15;;;8.00;99.90;;;;;;5037281;28;20083;-71
2021/12/14 01:38:02;;;;;;;18.48;11.07;;;8.10;99.90;;;;;;5039133;28;20045;-71
2021/12/14 01:40:54;;;;;;;18.55;11.25;;;8.10;99.90;;;;;;5036058;28;20049;-71
2021/12/14 01:43:34;;;;;;;17.17;10.43;;;8.10;99.90;;;;;;5071500;28;20041;-71
2021/12/14 01:46:11;;;;;;;18.67;9.75;;;8.10;99.90;;;;;;5040473;28;20037;-71
2021/12/14 01:48:37;;;;;;;;;;;8.10;99.90;;;;;;5020894;28;20045;-71
2021/12/14 01:51:06;;;;;;;20.55;10.23;;;8.10;99.90;;;;;;5039084;28;19967;-71
2021/12/14 01:53:35;;;;;;;17.33;10.00;;;8.10;99.90;;;;;;5036294;28;20580;-71
2021/12/14 01:56:05;;;;;;;18.67;10.68;;;8.10;99.90;;;;;;5038349;28;20768;-71
2021/12/14 01:58:39;;;;;;;21.52;10.35;;;8.10;99.90;;;;;;5071501;28;20450;-70
2021/12/14 02:01:14;;;;;;;17.85;10.55;;;8.10;99.90;;;;;;5036536;28;20045;-71
2021/12/14 02:03:48;;;;;;;16.88;10.50;;;8.10;99.90;;;;;;5072077;28;20064;-71
2021/12/14 02:06:18;;;;;;;21.25;10.45;;;8.10;99.90;;;;;;5068505;28;20045;-71
2021/12/14 02:08:45;;;;;;;17.63;10.52;;;8.10;99.90;;;;;;5038418;28;20045;-71
2021/12/14 02:11:12;;;;;;;17.85;10.73;;;8.10;99.90;;;;;;5037795;28;20138;-70
2021/12/14 02:13:46;;;;;;;17.58;9.63;;;8.10;99.90;;;;;;5053183;28;20053;-72
2021/12/14 02:16:17;;;;;;;19.10;9.85;;;8.10;99.90;;;;;;5038640;28;20053;-71
2021/12/14 02:18:45;;;;;;;17.98;10.48;;;8.10;99.90;;;;;;5035288;28;20045;-71
2021/12/14 02:21:12;;;;;;;18.00;10.40;;;8.10;99.90;;;;;;5072172;28;20426;-71
2021/12/14 02:23:45;;;;;;;22.02;11.88;;;8.10;99.90;;;;;;5035810;28;20041;-71
2021/12/14 02:26:15;;;;;;;18.42;10.48;;;8.10;99.90;;;;;;5037735;28;20085;-71
2021/12/14 02:28:42;;;;;;;17.95;9.88;;;8.10;99.90;;;;;;5038411;28;20049;-70
2021/12/14 02:31:11;;;;;;;22.17;11.10;;;8.10;99.90;;;;;;5035180;28;20056;-70
2021/12/14 02:33:40;;;;;;;20.17;10.63;;;8.10;99.90;;;;;;5038507;28;20151;-71
2021/12/14 02:36:09;;;;;;;21.15;9.80;;;8.10;99.90;;;;;;5067784;28;20064;-71
2021/12/14 02:38:44;;;;;;;22.52;11.57;;;8.00;99.90;;;;;;5037553;28;20093;-71
2021/12/14 02:41:11;;;;;;;20.13;10.05;;;8.00;99.90;;;;;;5070252;28;20053;-70
2021/12/14 02:43:55;;;;;;;19.85;9.82;;;8.00;99.90;;;;;;5003960;28;20052;-71
2021/12/14 02:46:21;;;;;;;20.23;10.25;;;8.00;99.90;;;;;;5054484;28;20049;-70
2021/12/14 02:48:54;;;;;;;22.88;11.82;;;8.00;99.90;;;;;;5034840;28;20067;-70
2021/12/14 02:51:24;;;;;;;24.17;11.85;;;8.00;99.90;;;;;;5039487;28;20045;-70
2021/12/14 02:53:55;;;;;;;22.65;12.30;;;8.00;99.90;;;;;;5036657;28;20109;-70
2021/12/14 02:56:26;;;;;;;22.92;11.18;;;8.00;99.90;;;;;;5069634;28;20037;-71
2021/12/14 02:58:57;;;;;;;22.08;11.48;;;8.00;99.90;;;;;;5037980;28;20064;-70
2021/12/14 03:01:23;;;;;;;20.42;11.38;;;8.00;99.90;;;;;;5051398;28;20049;-71
2021/12/14 03:03:49;;;;;;;20.33;11.05;;;8.00;99.90;;;;;;5037876;28;20049;-70
2021/12/14 03:06:21;;;;;;;21.35;11.48;;;8.00;99.90;;;;;;5034462;28;20092;-70
2021/12/14 03:08:57;;;;;;;26.50;13.30;;;8.00;99.90;;;;;;5037109;28;20093;-70
2021/12/14 03:11:24;;;;;;;23.20;12.07;;;8.00;99.90;;;;;;5039064;28;20045;-70
2021/12/14 03:13:52;;;;;;;23.70;12.70;;;8.00;99.90;;;;;;5034977;28;20079;-71
2021/12/14 03:16:23;;;;;;;23.52;12.48;;;8.10;99.90;;;;;;5036743;28;20049;-71
2021/12/14 03:18:50;;;;;;;25.08;12.70;;;8.10;99.90;;;;;;5035790;28;20052;-70
2021/12/14 03:21:30;;;;;;;24.75;13.25;;;8.00;99.90;;;;;;5037980;28;20056;-71
2021/12/14 03:24:04;;;;;;;23.42;13.25;;;8.00;99.90;;;;;;5069600;28;20092;-71
2021/12/14 03:26:32;;;;;;;23.73;12.98;;;7.90;99.90;;;;;;5035263;28;20064;-71
2021/12/14 03:29:03;;;;;;;27.75;13.18;;;8.00;99.90;;;;;;5038817;28;20045;-71
2021/12/14 03:31:36;;;;;;;29.73;14.80;;;8.00;99.90;;;;;;5033983;28;20063;-71
2021/12/14 03:34:13;;;;;;;27.42;14.13;;;7.90;99.90;;;;;;5070598;28;20053;-71
2021/12/14 03:36:44;;;;;;;23.85;13.20;;;8.00;99.90;;;;;;5035341;28;20100;-70
2021/12/14 03:39:19;;;;;;;27.73;13.85;;;7.90;99.90;;;;;;5069536;28;20148;-72
2021/12/14 03:41:53;;;;;;;29.42;12.90;;;7.90;99.90;;;;;;5071013;28;20286;-70
2021/12/14 03:44:30;;;;;;;23.25;12.10;;;7.90;99.90;;;;;;5067620;28;20053;-70
2021/12/14 03:47:06;;;;;;;25.77;13.30;;;7.90;99.90;;;;;;5037279;28;20088;-70
2021/12/14 03:49:58;;;;;;;28.45;14.15;;;7.90;99.90;;;;;;5068827;28;20052;-70
2021/12/14 03:52:33;;;;;;;27.25;13.65;;;7.90;99.90;;;;;;5033942;28;20068;-71
2021/12/14 03:55:02;;;;;;;25.33;14.50;;;7.90;99.90;;;;;;5053699;28;20041;-72
2021/12/14 03:57:28;;;;;;;34.38;15.20;;;7.90;99.90;;;;;;5034060;28;20049;-71
2021/12/14 03:59:54;;;;;;;26.83;14.30;;;7.90;99.90;;;;;;5037275;28;20101;-71
2021/12/14 04:02:21;;;;;;;28.90;15.70;;;7.90;99.90;;;;;;5068263;28;20045;-70
2021/12/14 04:05:06;;;;;;;28.85;14.20;;;7.90;99.90;;;;;;5068855;28;20042;-71
2021/12/14 04:07:34;;;;;;;26.10;13.80;;;7.90;99.90;;;;;;5070822;28;20061;-70
2021/12/14 04:10:00;;;;;;;30.25;15.50;;;7.80;99.90;;;;;;5067105;28;20069;-71
2021/12/14 04:12:27;;;;;;;28.35;14.20;;;7.80;99.90;;;;;;5037090;28;20105;-71
2021/12/14 04:14:56;;;;;;;33.78;16.80;;;7.80;99.90;;;;;;5067375;28;20037;-71
2021/12/14 04:17:24;;;;;;;30.92;17.33;;;7.80;99.90;;;;;;5038020;28;20061;-71
2021/12/14 04:19:51;;;;;;;27.80;14.10;;;7.90;99.90;;;;;;5036451;28;20101;-70
2021/12/14 04:22:21;;;;;;;29.55;15.65;;;7.80;99.90;;;;;;5068255;28;20107;-71
2021/12/14 04:24:49;;;;;;;32.85;16.25;;;7.80;99.90;;;;;;5037145;28;20061;-70
2021/12/14 04:27:22;;;;;;;27.50;16.10;;;7.80;99.90;;;;;;5035976;28;20076;-70
2021/12/14 04:29:49;;;;;;;29.00;15.70;;;7.80;99.90;;;;;;5057274;28;20045;-71
2021/12/14 04:32:16;;;;;;;30.73;16.80;;;7.80;99.90;;;;;;5039035;28;20056;-70
2021/12/14 04:34:43;;;;;;;31.38;15.82;;;7.80;99.90;;;;;;5039108;28;20054;-72
2021/12/14 04:37:14;;;;;;;33.83;15.55;;;7.70;99.90;;;;;;5040371;28;20045;-71
2021/12/14 04:39:46;;;;;;;31.30;15.90;;;7.70;99.90;;;;;;5037577;28;20108;-71
2021/12/14 04:53:51;;;;;;;40.83;18.08;;;7.60;99.90;;;;;;5017953;28;20374;-71
2021/12/14 04:56:32;;;;;;;33.58;16.90;;;7.60;99.90;;;;;;5035592;28;20052;-71
2021/12/14 04:59:06;;;;;;;35.03;18.55;;;7.50;99.90;;;;;;5036701;28;20125;-71
2021/12/14 05:01:35;;;;;;;49.55;20.33;;;7.50;99.90;;;;;;5018477;28;20106;-71
2021/12/14 05:04:05;;;;;;;35.55;18.88;;;7.50;99.90;;;;;;5004041;28;20038;-70
2021/12/14 05:06:51;;;;;;;32.97;16.60;;;7.50;99.90;;;;;;5050501;28;20058;-70
2021/12/14 05:09:29;;;;;;;41.80;20.58;;;7.40;99.90;;;;;;5018889;28;20058;-71
2021/12/14 05:12:17;;;;;;;38.88;18.05;;;7.50;99.90;;;;;;5052926;28;20129;-71
2021/12/14 05:14:45;;;;;;;37.92;18.38;;;7.40;99.90;;;;;;5050041;28;20088;-71
2021/12/14 05:17:15;;;;;;;37.40;18.48;;;7.40;99.90;;;;;;5020164;28;20387;-71
2021/12/14 05:19:42;;;;;;;40.63;19.35;;;7.50;99.90;;;;;;5019139;28;20049;-71
2021/12/14 05:22:22;;;;;;;39.65;20.35;;;7.50;99.90;;;;;;5050851;28;20045;-71
2021/12/14 05:24:52;;;;;;;41.10;20.50;;;7.50;99.90;;;;;;5052820;28;20056;-71
2021/12/14 05:27:26;;;;;;;39.15;20.35;;;7.50;99.90;;;;;;5018244;28;20107;-72
2021/12/14 05:29:52;;;;;;;41.00;21.00;;;7.50;99.90;;;;;;5053276;28;20480;-71
2021/12/14 05:32:19;;;;;;;39.10;19.17;;;7.50;99.90;;;;;;5028745;28;20080;-71
2021/12/14 05:34:49;;;;;;;38.92;19.08;;;7.60;99.90;;;;;;5054296;28;20049;-72
2021/12/14 05:37:29;;;;;;;36.35;18.15;;;7.60;99.90;;;;;;5072685;28;20045;-71
2021/12/14 05:40:00;;;;;;;42.55;20.40;;;7.50;99.90;;;;;;5037304;28;20053;-71
2021/12/14 05:45:17;;;;;;;36.05;18.65;;;7.50;99.90;;;;;;5038811;28;20049;-71
2021/12/14 05:47:50;;;;;;;35.83;18.77;;;7.80;99.90;;;;;;5038351;28;20050;-71
2021/12/14 05:50:20;;;;;;;41.67;19.55;;;7.60;99.90;;;;;;5022711;28;20060;-71
2021/12/14 05:52:46;;;;;;;42.58;19.88;;;7.50;99.90;;;;;;5069018;28;20084;-72
2021/12/14 05:55:15;;;;;;;38.42;19.80;;;7.50;99.90;;;;;;5022530;28;20041;-72
2021/12/14 05:57:41;;;;;;;40.75;20.08;;;7.50;99.90;;;;;;5019606;28;20046;-71
2021/12/14 06:00:10;;;;;;;39.03;19.35;;;7.50;99.90;;;;;;5071725;28;20060;-71
2021/12/14 06:02:40;;;;;;;40.92;20.58;;;7.60;99.90;;;;;;5054594;28;20060;-72
2021/12/14 06:05:12;;;;;;;41.28;20.30;;;7.60;99.90;;;;;;5019256;28;20109;-71
2021/12/14 06:07:38;;;;;;;40.10;20.60;;;7.60;99.90;;;;;;5072051;28;20105;-70
2021/12/14 06:10:05;;;;;;;38.85;20.85;;;7.60;99.90;;;;;;5035503;28;20092;-70
2021/12/14 06:12:33;;;;;;;39.35;19.27;;;7.50;99.90;;;;;;5038780;28;20058;-71
2021/12/14 06:15:03;;;;;;;45.17;21.45;;;7.50;99.90;;;;;;5037537;28;20069;-70
2021/12/14 06:17:32;;;;;;;42.08;20.40;;;7.50;99.90;;;;;;5038990;28;20540;-70
2021/12/14 06:20:04;;;;;;;44.63;20.50;;;7.50;99.90;;;;;;5071839;28;20041;-70
2021/12/14 06:22:29;;;;;;;43.17;21.20;;;7.50;99.90;;;;;;5069077;28;20057;-71
2021/12/14 06:25:01;;;;;;;45.80;22.35;;;7.50;99.90;;;;;;5037873;28;20054;-72
2021/12/14 06:27:29;;;;;;;42.53;21.33;;;7.50;99.90;;;;;;5068141;28;20038;-72
2021/12/14 06:30:03;;;;;;;47.38;21.98;;;7.50;99.90;;;;;;5055087;28;20132;-71
2021/12/14 06:32:39;;;;;;;47.38;22.75;;;7.50;99.90;;;;;;5070390;28;20045;-71
2021/12/14 06:35:11;;;;;;;45.05;22.00;;;7.50;99.90;;;;;;5069284;28;20053;-71
2021/12/14 06:40:41;;;;;;;48.90;22.85;;;7.50;99.90;;;;;;5035578;28;20053;-71
2021/12/14 06:43:13;;;;;;;52.15;23.23;;;7.50;99.90;;;;;;5037603;28;20386;-71
2021/12/14 06:45:43;;;;;;;50.85;25.63;;;7.50;99.90;;;;;;5039424;28;20459;-70
2021/12/14 06:48:20;;;;;;;47.83;22.83;;;7.40;99.90;;;;;;5018500;28;20042;-70
2021/12/14 06:51:17;;;;;;;48.85;21.40;;;7.50;99.90;;;;;;5070628;28;20089;-70
2021/12/14 06:53:49;;;;;;;49.05;22.77;;;7.50;99.90;;;;;;5015889;28;20061;-70
2021/12/14 06:56:15;;;;;;;49.25;23.40;;;7.50;99.90;;;;;;5017839;28;20084;-70
2021/12/14 06:58:58;;;;;;;54.95;25.48;;;7.50;99.90;;;;;;5018000;28;20050;-71
2021/12/14 07:01:27;;;;;;;50.97;24.10;;;7.50;99.90;;;;;;5014706;28;20089;-71
2021/12/14 07:04:01;;;;;;;53.72;24.35;;;7.50;99.90;;;;;;5017827;28;20038;-71
2021/12/14 07:06:28;;;;;;;55.03;24.70;;;7.50;99.90;;;;;;5048278;28;20076;-71
2021/12/14 07:09:04;;;;;;;55.75;21.90;;;7.40;99.90;;;;;;5050085;28;20061;-70
2021/12/14 07:11:31;;;;;;;58.67;25.48;;;7.40;99.90;;;;;;5018012;28;20046;-71
2021/12/14 07:13:57;;;;;;;54.47;23.65;;;7.50;99.90;;;;;;5014601;28;20539;-71
2021/12/14 07:16:30;;;;;;;57.47;25.05;;;7.50;99.90;;;;;;5018123;28;20049;-71
2021/12/14 07:18:59;;;;;;;58.67;25.67;;;7.50;99.90;;;;;;5015466;28;20049;-70
2021/12/14 07:21:40;;;;;;;59.78;25.98;;;7.40;99.90;;;;;;5067525;28;20105;-70
2021/12/14 07:24:21;;;;;;;58.65;25.88;;;7.40;99.90;;;;;;5050453;28;20125;-70
2021/12/14 07:27:07;;;;;;;67.15;28.40;;;7.40;99.90;;;;;;5047751;28;20049;-71
2021/12/14 07:29:32;;;;;;;61.60;25.15;;;7.40;99.90;;;;;;5019724;28;20038;-71
2021/12/14 07:31:58;;;;;;;64.78;27.83;;;7.50;99.90;;;;;;5024504;28;20045;-71
2021/12/14 07:34:24;;;;;;;58.58;27.02;;;7.50;99.90;;;;;;5036872;28;20049;-72
2021/12/14 07:36:50;;;;;;;64.28;29.15;;;7.40;99.90;;;;;;5069703;28;20049;-71
2021/12/14 07:39:18;;;;;;;66.00;27.55;;;7.40;99.90;;;;;;5034751;28;20077;-72
2021/12/14 07:41:51;;;;;;;67.13;28.65;;;7.50;99.90;;;;;;5036789;28;20065;-72
2021/12/14 07:44:19;;;;;;;64.90;27.02;;;7.50;99.90;;;;;;5034408;28;20041;-72
2021/12/14 07:46:52;;;;;;;68.25;27.38;;;7.50;99.90;;;;;;5037160;28;20128;-72
2021/12/14 07:49:29;;;;;;;64.40;27.67;;;7.50;99.90;;;;;;5035117;28;20045;-72
2021/12/14 07:52:09;;;;;;;62.72;27.75;;;7.50;99.90;;;;;;5035689;28;20426;-74
2021/12/14 07:54:37;;;;;;;60.75;27.83;;;7.50;99.90;;;;;;5037562;28;20053;-71
2021/12/14 07:57:11;;;;;;;62.17;28.45;;;7.50;99.90;;;;;;5034319;28;20057;-71
2021/12/14 07:59:44;;;;;;;64.47;28.75;;;7.50;99.90;;;;;;5037491;28;20105;-71
2021/12/14 08:02:34;;;;;;;62.20;27.65;;;7.60;99.90;;;;;;5071222;28;20113;-72
2021/12/14 08:05:24;;;;;;;64.20;28.75;;;7.60;99.90;;;;;;5040669;28;20045;-72
2021/12/14 08:08:03;;;;;;;63.53;26.27;;;7.60;99.90;;;;;;5074808;28;20046;-71
2021/12/14 08:10:37;;;;;;;60.08;25.77;;;7.70;99.90;;;;;;5039226;28;20069;-71
2021/12/14 08:13:08;;;;;;;68.22;27.65;;;7.60;99.90;;;;;;5059181;28;20050;-73
2021/12/14 08:15:52;;;;;;;61.45;26.42;;;7.60;99.90;;;;;;5070772;28;20049;-71
2021/12/14 08:18:33;;;;;;;62.63;26.05;;;7.60;99.90;;;;;;5030735;28;20075;-71
2021/12/14 08:21:15;;;;;;;69.88;31.10;;;7.70;99.90;;;;;;5073939;28;20064;-71
2021/12/14 08:23:49;;;;;;;64.60;27.67;;;7.70;99.90;;;;;;5039902;28;20588;-71
2021/12/14 08:26:23;;;;;;;70.05;29.00;;;7.70;99.90;;;;;;5039939;28;20057;-71
2021/12/14 08:29:00;;;;;;;65.55;27.80;;;7.70;99.90;;;;;;5057250;28;20115;-71
2021/12/14 08:31:36;;;;;;;69.10;29.73;;;7.70;99.90;;;;;;5070820;28;20042;-71
2021/12/14 08:34:09;;;;;;;64.88;27.67;;;7.70;99.90;;;;;;5040088;28;20056;-72
2021/12/14 08:36:36;;;;;;;67.95;27.83;;;7.70;99.90;;;;;;5038555;28;20104;-70
2021/12/14 08:39:16;;;;;;;68.93;30.08;;;7.70;99.90;;;;;;5038946;28;20623;-70
2021/12/14 08:41:53;;;;;;;65.55;27.90;;;7.70;99.90;;;;;;5023914;28;20057;-70
2021/12/14 08:44:37;;;;;;;64.38;28.05;;;7.70;99.90;;;;;;5070324;28;20476;-70
2021/12/14 08:47:19;;;;;;;74.93;28.77;;;7.70;99.90;;;;;;5041801;28;20079;-70
2021/12/14 08:49:45;;;;;;;65.00;28.30;;;7.70;99.90;;;;;;5039266;28;20053;-70
2021/12/14 08:52:11;;;;;;;84.95;32.88;;;7.70;99.90;;;;;;5037758;28;20034;-71
2021/12/14 08:54:39;;;;;;;72.38;31.73;;;7.70;99.90;;;;;;5073362;28;20033;-70
2021/12/14 08:57:13;;;;;;;73.53;32.25;;;7.70;99.90;;;;;;5004087;28;20079;-70
2021/12/14 08:59:42;;;;;;;73.05;31.30;;;7.70;99.90;;;;;;5073441;28;20041;-69
2021/12/14 09:02:12;;;;;;;81.00;33.47;;;7.70;99.90;;;;;;5054752;28;20561;-69
2021/12/14 09:04:45;;;;;;;80.55;29.00;;;7.70;99.90;;;;;;5071615;28;20041;-70
2021/12/14 09:07:27;;;;;;;73.80;29.05;;;7.70;99.90;;;;;;5023334;28;20132;-69
2021/12/14 09:09:55;;;;;;;73.40;30.25;;;7.70;99.90;;;;;;5070100;28;20107;-70
2021/12/14 09:12:33;;;;;;;76.20;30.92;;;7.70;99.90;;;;;;5039014;28;20124;-70
2021/12/14 09:15:09;;;;;;;78.93;30.15;;;7.80;99.90;;;;;;5070819;28;20068;-70
2021/12/14 09:17:35;;;;;;;;;;;7.80;99.90;;;;;;5039401;28;20038;-71
2021/12/14 09:20:11;;;;;;;72.83;31.53;;;7.70;99.90;;;;;;5056359;28;19931;-72
2021/12/14 09:22:41;;;;;;;67.68;28.58;;;7.80;99.90;;;;;;5036761;28;20050;-73
2021/12/14 09:25:12;;;;;;;73.53;30.15;;;7.80;99.90;;;;;;5072649;28;20050;-72
2021/12/14 09:27:38;;;;;;;75.43;31.58;;;7.80;99.90;;;;;;5070569;28;20073;-71
2021/12/14 09:30:08;;;;;;;75.53;33.20;;;7.80;99.90;;;;;;5038905;28;20045;-71
2021/12/14 09:32:36;;;;;;;65.45;29.45;;;7.80;99.90;;;;;;5038309;28;20137;-70
2021/12/14 09:35:06;;;;;;;65.45;29.02;;;7.80;99.90;;;;;;5069236;28;20217;-70
2021/12/14 09:37:32;;;;;;;69.15;29.45;;;7.80;99.90;;;;;;5038923;28;20053;-71
2021/12/14 09:40:06;;;;;;;63.10;28.90;;;7.80;99.90;;;;;;5069265;28;20080;-71
2021/12/14 09:42:35;;;;;;;70.30;29.70;;;7.90;99.90;;;;;;5087030;28;20136;-71
2021/12/14 09:45:17;;;;;;;69.32;30.10;;;7.90;99.90;;;;;;5028831;28;20077;-71
2021/12/14 09:47:43;;;;;;;67.05;28.23;;;7.90;99.90;;;;;;5050403;28;20116;-71
2021/12/14 09:50:19;;;;;;;64.78;26.98;;;7.90;99.90;;;;;;5060117;28;20110;-71
2021/12/14 09:52:47;;;;;;;65.25;28.52;;;7.90;99.90;;;;;;5068991;28;20049;-71
2021/12/14 09:55:19;;;;;;;67.60;28.15;;;8.00;99.90;;;;;;5040135;28;20061;-71
2021/12/14 09:57:50;;;;;;;63.42;30.38;;;8.00;99.90;;;;;;5069545;28;20067;-70
2021/12/14 10:00:49;;;;;;;61.47;26.65;;;8.00;99.90;;;;;;5039230;28;20120;-70
2021/12/14 10:03:16;;;;;;;50.92;23.80;;;8.00;99.90;;;;;;5046596;28;20848;-70
2021/12/14 10:05:50;;;;;;;61.25;27.23;;;8.10;99.90;;;;;;5054988;28;20574;-71
2021/12/14 10:08:20;;;;;;;61.83;27.58;;;8.10;99.90;;;;;;5058212;28;20053;-71
2021/12/14 10:11:02;;;;;;;63.75;28.63;;;8.10;99.90;;;;;;5056300;28;20065;-70
2021/12/14 10:13:29;;;;;;;61.75;27.05;;;8.10;99.90;;;;;;5057073;28;20084;-71
2021/12/14 10:15:58;;;;;;;63.35;28.00;;;8.10;99.90;;;;;;5092291;28;20037;-71
2021/12/14 10:18:46;;;;;;;69.97;29.05;;;8.20;99.90;;;;;;5056434;28;20037;-70
2021/12/14 10:21:27;;;;;;;59.85;26.52;;;8.20;99.90;;;;;;5041529;28;20080;-70
2021/12/14 10:23:56;;;;;;;64.47;26.85;;;8.20;99.90;;;;;;5058791;28;20049;-70
2021/12/14 10:26:23;;;;;;;60.00;28.30;;;8.20;99.90;;;;;;5089647;28;20156;-70
2021/12/14 10:28:53;;;;;;;60.40;28.42;;;8.20;99.90;;;;;;5057945;28;20045;-70
2021/12/14 10:31:30;;;;;;;61.63;28.33;;;8.20;99.90;;;;;;5053188;28;20064;-71
2021/12/14 10:33:58;;;;;;;69.85;31.23;;;8.20;99.90;;;;;;5072389;28;20100;-70
2021/12/14 10:36:39;;;;;;;61.75;27.90;;;8.20;99.90;;;;;;5036627;28;20159;-70
2021/12/14 10:44:32;;;;;;;66.28;29.77;;;8.10;99.90;;;;;;5036155;28;20059;-71
2021/12/14 10:46:59;;;;;;;63.65;28.60;;;8.20;99.90;;;;;;5037426;28;20056;-71
2021/12/14 10:49:26;;;;;;;65.55;28.70;;;8.10;99.90;;;;;;5069396;28;20080;-70
2021/12/14 10:52:10;;;;;;;58.65;27.70;;;8.10;99.90;;;;;;5035703;28;20046;-70
2021/12/14 10:54:36;;;;;;;63.20;28.20;;;8.20;99.90;;;;;;5038246;28;20088;-70
2021/12/14 10:57:10;;;;;;;63.75;27.35;;;8.20;99.90;;;;;;5034566;28;20040;-70
2021/12/14 10:59:39;;;;;;;57.30;25.85;;;8.20;99.90;;;;;;5037592;28;20046;-71
2021/12/14 11:02:06;;;;;;;62.05;27.48;;;8.20;99.90;;;;;;5019352;28;20398;-71
2021/12/14 11:04:40;;;;;;;62.28;26.00;;;8.20;99.90;;;;;;5036612;28;20104;-70
2021/12/14 11:07:13;;;;;;;58.85;25.25;;;8.30;99.90;;;;;;5070564;28;20103;-71
2021/12/14 11:12:10;;;;;;;57.88;25.50;;;8.30;99.90;;;;;;5038963;28;20057;-70
2021/12/14 11:14:37;;;;;;;68.30;26.63;;;8.30;99.90;;;;;;5036434;28;20527;-70
2021/12/14 11:20:22;;;;;;;63.42;26.70;;;8.40;99.90;;;;;;5037156;28;20053;-70
2021/12/14 11:22:53;;;;;;;61.10;25.73;;;8.30;99.90;;;;;;5068188;28;20185;-70
2021/12/14 11:25:24;;;;;;;62.97;27.13;;;8.30;99.90;;;;;;5037453;28;20056;-70
2021/12/14 11:28:06;;;;;;;65.90;27.02;;;8.30;99.90;;;;;;5035478;28;20041;-70
2021/12/14 11:30:46;;;;;;;65.65;27.27;;;8.30;99.90;;;;;;5069029;28;20159;-70
2021/12/14 11:33:20;;;;;;;60.85;27.27;;;8.30;99.90;;;;;;5037554;28;20053;-70
2021/12/14 11:35:48;;;;;;;69.30;27.42;;;8.30;99.90;;;;;;5066679;28;20073;-71
2021/12/14 11:38:53;;;;;;;66.80;26.08;;;8.30;99.90;;;;;;5042593;28;20449;-70
2021/12/14 11:41:31;;;;;;;70.88;29.90;;;8.30;99.90;;;;;;5041327;28;20487;-70
2021/12/14 11:44:28;;;;;;;68.25;29.80;;;8.30;99.90;;;;;;5055128;28;20072;-71
2021/12/14 11:49:54;;;;;;;68.93;27.55;;;8.20;99.90;;;;;;5047976;28;20065;-72
2021/12/14 11:52:50;;;;;;;70.72;29.77;;;8.20;99.90;;;;;;5038167;28;20049;-70
2021/12/14 11:55:31;;;;;;;66.80;27.58;;;8.20;99.90;;;;;;5041232;28;20056;-70
2021/12/14 11:58:25;;;;;;;64.47;27.10;;;8.20;99.90;;;;;;5039133;28;20050;-70
2021/12/14 12:01:05;;;;;;;73.28;30.05;;;8.20;99.90;;;;;;5032016;28;20045;-71
2021/12/14 12:03:34;;;;;;;66.45;26.95;;;8.20;99.90;;;;;;5042478;28;20080;-70
2021/12/14 12:06:35;;;;;;;65.05;27.48;;;8.20;99.90;;;;;;5038002;28;20460;-70
2021/12/14 12:11:50;;;;;;;67.75;27.30;;;8.30;99.90;;;;;;5049741;28;20049;-70
2021/12/14 12:14:20;;;;;;;64.63;26.75;;;8.30;99.90;;;;;;5038329;28;20060;-70
2021/12/14 12:16:46;;;;;;;60.72;26.60;;;8.30;99.90;;;;;;5038995;28;20076;-69
2021/12/14 12:19:16;;;;;;;70.13;28.67;;;8.30;99.90;;;;;;5037490;28;20049;-69
2021/12/14 12:21:45;;;;;;;60.75;27.25;;;8.30;99.90;;;;;;5039506;28;20057;-70
2021/12/14 12:24:35;;;;;;;66.80;27.77;;;8.30;99.90;;;;;;5040779;28;20084;-71
2021/12/14 12:27:22;;;;;;;59.95;24.45;;;8.30;99.90;;;;;;5032422;28;20072;-70
2021/12/14 12:30:05;;;;;;;62.63;28.08;;;8.30;99.90;;;;;;5057373;28;20053;-71
2021/12/14 12:32:31;;;;;;;58.05;26.13;;;8.30;99.90;;;;;;5041377;28;20053;-72
2021/12/14 12:34:57;;;;;;;58.42;25.48;;;8.30;99.90;;;;;;5037324;28;20080;-70
2021/12/14 12:37:42;;;;;;;60.67;25.02;;;8.30;99.90;;;;;;5041527;28;20052;-70
2021/12/14 12:40:17;;;;;;;61.33;24.60;;;8.30;99.90;;;;;;5037467;28;20049;-71
2021/12/14 12:42:44;;;;;;;58.10;24.33;;;8.30;99.90;;;;;;5056697;28;20045;-70
2021/12/14 12:45:33;;;;;;;55.30;23.60;;;8.30;99.90;;;;;;5038618;28;20053;-70
2021/12/14 12:48:01;;;;;;;54.05;23.60;;;8.30;99.90;;;;;;5035708;28;20509;-70
2021/12/14 12:50:28;;;;;;;62.33;25.70;;;8.30;99.90;;;;;;5041769;28;20076;-71
2021/12/14 12:52:54;;;;;;;57.08;26.25;;;8.30;99.90;;;;;;5037061;28;20060;-70
2021/12/14 12:55:30;;;;;;;52.50;23.95;;;8.40;99.90;;;;;;5073337;28;20778;-70
2021/12/14 12:58:11;;;;;;;55.40;23.73;;;8.30;99.90;;;;;;5039479;28;20046;-69
2021/12/14 13:00:55;;;;;;;49.13;22.00;;;8.40;99.90;;;;;;5038990;28;20437;-70
2021/12/14 13:03:26;;;;;;;48.70;20.83;;;8.40;99.90;;;;;;5072751;28;20057;-69
2021/12/14 13:05:59;;;;;;;55.60;23.70;;;8.30;99.90;;;;;;5037842;28;20061;-70
2021/12/14 13:09:03;;;;;;;57.88;22.23;;;8.30;99.90;;;;;;5040914;28;20105;-69
2021/12/14 13:11:35;;;;;;;51.22;21.77;;;8.40;99.90;;;;;;5038690;28;20136;-69
2021/12/14 13:14:21;;;;;;;52.08;21.30;;;8.40;99.90;;;;;;5069980;28;20049;-69
2021/12/14 13:16:51;;;;;;;47.70;20.40;;;8.40;99.90;;;;;;5041016;28;20045;-69
2021/12/14 13:19:22;;;;;;;57.33;22.98;;;8.40;99.90;;;;;;5038404;28;20053;-69
2021/12/14 13:21:59;;;;;;;47.70;20.70;;;8.40;99.90;;;;;;5039098;28;20049;-69
2021/12/14 13:24:37;;;;;;;48.25;19.80;;;8.40;99.90;;;;;;5040693;28;20045;-70
2021/12/14 13:27:06;;;;;;;52.60;21.00;;;8.40;99.90;;;;;;5037674;28;20050;-70
2021/12/14 13:29:49;;;;;;;47.47;19.63;;;8.40;99.90;;;;;;5040732;28;20053;-69
2021/12/14 13:32:29;;;;;;;45.85;21.05;;;8.40;99.90;;;;;;5039156;28;20053;-69
2021/12/14 13:35:22;;;;;;;44.80;18.40;;;8.40;99.90;;;;;;5038401;28;20101;-69
2021/12/14 13:38:02;;;;;;;47.53;19.58;;;8.40;99.90;;;;;;5040485;28;20174;-70
2021/12/14 13:40:32;;;;;;;43.92;18.83;;;8.50;99.90;;;;;;5038037;28;20073;-71
2021/12/14 13:43:10;;;;;;;51.47;20.80;;;8.50;99.90;;;;;;5039789;28;20068;-69
2021/12/14 13:46:01;;;;;;;48.17;20.50;;;8.50;99.90;;;;;;5040506;28;20163;-69
2021/12/14 13:48:33;;;;;;;46.03;19.42;;;8.50;99.90;;;;;;5035987;28;20058;-70